In Rescue
 
Open Full Screen Window  High Contrast Mode
July 15, 2020 9:24 PM EDT
Present Weather: Rain
Weather Information
Wind Direction
  ---
Wind Speed
  00 kt (0 mph)
Wind Gust
  00 kt (0 mph)
Altimeter
29.99 in
Visibility
10 SM
Temperature
19° C
66° F
Dewpoint
17° C
63° F
Humidity
88%
Sky Condition
Overcast @ 10,000 ft
Scattered @ 8,000 ft
Scattered @ 6,000 ft
VFR

METAR KACB 160124Z AUTO 00000KT 10SM RA SCT060 SCT080 OVC100 19/17 A2999 RMK AO2 T01850171

FAA Disclaimer: The data displayed is for advisory purposes only and is not to be used for flight planning or operations.